Time;durP1;ratioP1;P1;durP2;ratioP2;P2;SDS_P1;SDS_P2;PMS_P1;PMS_P2;Temp;Humidity;BMP_temperature;BMP_pressure;BME280_temperature;BME280_humidity;BME280_pressure;Samples;Min_cycle;Max_cycle;Signal;HPM_P1;HPM_P2
2022/12/08 00:01:41;;;;;;;4.93;1.88;;;;;;;;;;5042858;28;20045;-76
2022/12/08 00:04:07;;;;;;;6.93;1.92;;;;;;;;;;5044704;28;20432;-74
2022/12/08 00:09:31;;;;;;;9.57;2.13;;;;;;;;;;5049105;28;20051;-74
2022/12/08 00:11:58;;;;;;;4.05;1.60;;;;;;;;;;5026631;28;20095;-74
2022/12/08 00:14:25;;;;;;;6.97;1.83;;;;;;;;;;5044530;28;20056;-74
2022/12/08 00:16:51;;;;;;;7.85;1.85;;;;;;;;;;5043825;28;20050;-76
2022/12/08 00:19:17;;;;;;;6.68;2.17;;;;;;;;;;5043488;28;20060;-75
2022/12/08 00:21:43;;;;;;;5.82;1.70;;;;;;;;;;5046745;28;20087;-75
2022/12/08 00:24:09;;;;;;;6.18;1.73;;;;;;;;;;5048705;28;20068;-76
2022/12/08 00:26:36;;;;;;;5.78;1.42;;;;;;;;;;5040384;28;20049;-74
2022/12/08 00:29:02;;;;;;;6.57;1.63;;;;;;;;;;5052683;28;20060;-75
2022/12/08 00:31:28;;;;;;;5.35;2.10;;;;;;;;;;5043487;28;20037;-75
2022/12/08 00:33:54;;;;;;;6.20;1.80;;;;;;;;;;5043238;28;20056;-75
2022/12/08 00:36:20;;;;;;;7.18;1.65;;;;;;;;;;5049190;28;20388;-75
2022/12/08 00:38:47;;;;;;;7.75;1.90;;;;;;;;;;5047496;28;20041;-75
2022/12/08 00:44:06;;;;;;;9.27;1.80;;;;;;;;;;5041890;28;20404;-74
2022/12/08 00:46:32;;;;;;;8.57;1.63;;;;;;;;;;5038206;28;20060;-74
2022/12/08 00:48:58;;;;;;;5.75;1.50;;;;;;;;;;5042015;28;20491;-75
2022/12/08 00:51:24;;;;;;;4.45;1.60;;;;;;;;;;5041989;28;20041;-75
2022/12/08 00:53:50;;;;;;;5.78;1.50;;;;;;;;;;5046531;28;20049;-74
2022/12/08 00:56:16;;;;;;;10.60;1.85;;;;;;;;;;5027569;28;20067;-74
2022/12/08 00:58:42;;;;;;;5.15;1.80;;;;;;;;;;5051442;28;20037;-74
2022/12/08 01:01:12;;;;;;;5.45;1.58;;;;;;;;;;5046325;28;20049;-76
2022/12/08 01:03:38;;;;;;;7.93;1.80;;;;;;;;;;5048522;28;20084;-74
2022/12/08 01:06:04;;;;;;;7.65;1.92;;;;;;;;;;5043912;28;20077;-76
2022/12/08 01:08:30;;;;;;;5.45;2.38;;;;;;;;;;5044612;28;20033;-75
2022/12/08 01:10:56;;;;;;;9.18;2.00;;;;;;;;;;5025122;28;20041;-75
2022/12/08 01:13:22;;;;;;;7.22;2.00;;;;;;;;;;5046806;28;20049;-74
2022/12/08 01:15:48;;;;;;;6.85;1.92;;;;;;;;;;5047549;28;20049;-75
2022/12/08 01:18:14;;;;;;;9.55;2.42;;;;;;;;;;5041082;28;20048;-74
2022/12/08 01:20:40;;;;;;;6.15;2.10;;;;;;;;;;5045048;28;20174;-76
2022/12/08 01:23:06;;;;;;;7.63;2.30;;;;;;;;;;5046510;28;20388;-76
2022/12/08 01:25:34;;;;;;;6.60;2.20;;;;;;;;;;5043832;28;20041;-75
2022/12/08 01:28:00;;;;;;;10.38;2.47;;;;;;;;;;5043177;28;20053;-76
2022/12/08 01:30:26;;;;;;;8.48;2.53;;;;;;;;;;5051203;28;20113;-74
2022/12/08 01:32:52;;;;;;;6.13;2.60;;;;;;;;;;5039146;28;20038;-74
2022/12/08 01:35:18;;;;;;;5.95;2.40;;;;;;;;;;5040846;28;20062;-74
2022/12/08 01:37:44;;;;;;;5.65;2.60;;;;;;;;;;5040256;28;20041;-75
2022/12/08 01:40:10;;;;;;;6.13;2.90;;;;;;;;;;5041625;28;20049;-76
2022/12/08 01:42:37;;;;;;;6.70;3.00;;;;;;;;;;5025144;28;20409;-75
2022/12/08 01:45:07;;;;;;;7.93;2.53;;;;;;;;;;5043934;28;20044;-76
2022/12/08 01:47:46;;;;;;;7.68;2.90;;;;;;;;;;5037647;28;20033;-76
2022/12/08 01:50:12;;;;;;;12.05;3.30;;;;;;;;;;5032694;28;20039;-75
2022/12/08 01:52:40;;;;;;;9.45;3.03;;;;;;;;;;5045286;28;20076;-75
2022/12/08 01:55:10;;;;;;;8.38;3.33;;;;;;;;;;5040468;28;20041;-75
2022/12/08 01:57:50;;;;;;;6.28;2.80;;;;;;;;;;5041659;28;20045;-75
2022/12/08 02:00:17;;;;;;;5.38;2.83;;;;;;;;;;5038980;28;20045;-75
2022/12/08 02:02:46;;;;;;;10.88;3.15;;;;;;;;;;5025527;28;20507;-74
2022/12/08 02:05:13;;;;;;;9.90;3.03;;;;;;;;;;5043425;28;20044;-76
2022/12/08 02:07:39;;;;;;;7.15;2.90;;;;;;;;;;5026691;28;20128;-76
2022/12/08 02:10:06;;;;;;;10.05;3.20;;;;;;;;;;5039968;28;20041;-76
2022/12/08 02:12:32;;;;;;;7.88;3.15;;;;;;;;;;5042592;28;20415;-75
2022/12/08 02:14:59;;;;;;;9.52;3.15;;;;;;;;;;5042786;28;20070;-76
2022/12/08 02:17:43;;;;;;;7.78;3.03;;;;;;;;;;5026782;28;20044;-74
2022/12/08 02:20:30;;;;;;;7.38;3.22;;;;;;;;;;5040114;28;20196;-74
2022/12/08 02:22:56;;;;;;;11.43;3.45;;;;;;;;;;5041576;28;20045;-74
2022/12/08 02:25:28;;;;;;;5.25;3.70;;;;;;;;;;5043557;28;20045;-73
2022/12/08 02:28:00;;;;;;;8.50;3.65;;;;;;;;;;5048902;28;20045;-72
2022/12/08 02:30:26;;;;;;;7.50;3.65;;;;;;;;;;5045830;28;20091;-72
2022/12/08 02:32:52;;;;;;;8.60;3.53;;;;;;;;;;5047057;28;20048;-72
2022/12/08 02:35:24;;;;;;;10.70;3.70;;;;;;;;;;5047701;28;20043;-73
2022/12/08 02:38:07;;;;;;;13.05;3.90;;;;;;;;;;5045393;28;20040;-71
2022/12/08 02:40:44;;;;;;;9.85;3.72;;;;;;;;;;5044451;28;20175;-74
2022/12/08 02:43:29;;;;;;;9.15;3.95;;;;;;;;;;5044552;28;20049;-72
2022/12/08 02:45:59;;;;;;;7.35;3.50;;;;;;;;;;5044212;28;20102;-72
2022/12/08 02:48:27;;;;;;;9.75;3.67;;;;;;;;;;5047221;28;20377;-74
2022/12/08 02:50:53;;;;;;;7.35;3.55;;;;;;;;;;5047443;28;20048;-72
2022/12/08 02:53:19;;;;;;;8.07;3.35;;;;;;;;;;5044595;28;21683;-75
2022/12/08 02:56:03;;;;;;;7.90;3.22;;;;;;;;;;5045012;28;20045;-73
2022/12/08 02:58:35;;;;;;;6.72;3.33;;;;;;;;;;5045332;28;20052;-74
2022/12/08 03:01:20;;;;;;;9.65;4.25;;;;;;;;;;5048545;28;20052;-74
2022/12/08 03:04:05;;;;;;;5.93;3.20;;;;;;;;;;5043717;28;20037;-72
2022/12/08 03:06:34;;;;;;;8.23;3.95;;;;;;;;;;5048083;28;21051;-72
2022/12/08 03:09:08;;;;;;;8.52;4.13;;;;;;;;;;5043430;28;20049;-74
2022/12/08 03:11:41;;;;;;;8.45;4.53;;;;;;;;;;5048363;28;20048;-71
2022/12/08 03:14:10;;;;;;;7.70;4.93;;;;;;;;;;5027927;28;20033;-74
2022/12/08 03:16:38;;;;;;;10.15;4.70;;;;;;;;;;5042961;28;20132;-74
2022/12/08 03:19:10;;;;;;;6.90;4.80;;;;;;;;;;5043625;28;20094;-73
2022/12/08 03:21:37;;;;;;;9.68;4.53;;;;;;;;;;5045746;28;20079;-72
2022/12/08 03:24:05;;;;;;;8.52;4.93;;;;;;;;;;5044771;28;20045;-74
2022/12/08 03:26:35;;;;;;;10.70;5.07;;;;;;;;;;5046905;28;20690;-73
2022/12/08 03:29:01;;;;;;;10.32;5.38;;;;;;;;;;5042565;28;20448;-73
2022/12/08 03:31:30;;;;;;;11.05;6.00;;;;;;;;;;5045190;28;20119;-72
2022/12/08 03:33:58;;;;;;;12.10;6.45;;;;;;;;;;5045268;28;20045;-72
2022/12/08 03:36:24;;;;;;;12.77;6.28;;;;;;;;;;5042504;28;20063;-74
2022/12/08 03:38:51;;;;;;;12.68;6.53;;;;;;;;;;5044911;28;20091;-74
2022/12/08 03:41:18;;;;;;;13.50;6.55;;;;;;;;;;5044552;28;20040;-72
2022/12/08 03:43:45;;;;;;;11.85;6.90;;;;;;;;;;5043199;28;20041;-73
2022/12/08 03:46:11;;;;;;;13.70;6.60;;;;;;;;;;5043739;28;20072;-74
2022/12/08 03:48:37;;;;;;;12.35;6.95;;;;;;;;;;5044715;28;20760;-74
2022/12/08 03:51:03;;;;;;;10.65;6.25;;;;;;;;;;5041936;28;20558;-76
2022/12/08 03:53:29;;;;;;;12.68;6.28;;;;;;;;;;5028428;28;20037;-72
2022/12/08 03:55:55;;;;;;;9.43;6.10;;;;;;;;;;5043838;28;20054;-72
2022/12/08 03:58:21;;;;;;;12.23;6.07;;;;;;;;;;5049465;28;20126;-73
2022/12/08 04:00:47;;;;;;;10.43;5.82;;;;;;;;;;5040422;28;20037;-73
2022/12/08 04:03:13;;;;;;;14.35;6.18;;;;;;;;;;5047424;28;20052;-74
2022/12/08 04:05:39;;;;;;;10.90;6.55;;;;;;;;;;5045433;28;20048;-74
2022/12/08 04:08:05;;;;;;;13.07;5.70;;;;;;;;;;5042622;28;20095;-74
2022/12/08 04:10:31;;;;;;;11.95;6.03;;;;;;;;;;5043827;28;20052;-75
2022/12/08 04:12:57;;;;;;;11.45;6.03;;;;;;;;;;5025727;28;20098;-74
2022/12/08 04:15:23;;;;;;;11.07;6.03;;;;;;;;;;5043388;28;20049;-74
2022/12/08 04:17:49;;;;;;;10.38;5.70;;;;;;;;;;5044507;28;20131;-75
2022/12/08 04:20:15;;;;;;;12.85;5.88;;;;;;;;;;5043814;28;20040;-74
2022/12/08 04:22:41;;;;;;;8.55;6.30;;;;;;;;;;5044015;28;20264;-72
2022/12/08 04:25:08;;;;;;;10.90;5.50;;;;;;;;;;5041590;28;20044;-74
2022/12/08 04:27:34;;;;;;;8.43;5.25;;;;;;;;;;5042156;28;20045;-72
2022/12/08 04:30:00;;;;;;;12.10;6.90;;;;;;;;;;5046500;28;20466;-74
2022/12/08 04:32:25;;;;;;;15.13;6.97;;;;;;;;;;5042125;28;20044;-75
2022/12/08 04:34:51;;;;;;;11.18;6.55;;;;;;;;;;5045462;28;20139;-73
2022/12/08 04:37:17;;;;;;;11.32;6.10;;;;;;;;;;5044352;28;20100;-74
2022/12/08 04:39:43;;;;;;;10.07;5.40;;;;;;;;;;5044082;28;20051;-75
2022/12/08 04:42:09;;;;;;;10.65;5.55;;;;;;;;;;5023813;28;20057;-74
2022/12/08 04:44:35;;;;;;;8.77;5.40;;;;;;;;;;5044623;28;20080;-75
2022/12/08 04:47:01;;;;;;;11.32;5.55;;;;;;;;;;5043496;28;20142;-72
2022/12/08 04:49:27;;;;;;;12.68;5.65;;;;;;;;;;5044874;28;20064;-74
2022/12/08 04:51:53;;;;;;;10.52;5.13;;;;;;;;;;5028968;28;20045;-72
2022/12/08 04:54:19;;;;;;;11.25;5.72;;;;;;;;;;5039410;28;20067;-72
2022/12/08 04:56:45;;;;;;;13.00;5.82;;;;;;;;;;5043205;28;20079;-75
2022/12/08 04:59:11;;;;;;;10.30;5.25;;;;;;;;;;5028849;28;20041;-73
2022/12/08 05:01:37;;;;;;;8.52;4.47;;;;;;;;;;5045831;28;20052;-73
2022/12/08 05:04:03;;;;;;;10.07;4.45;;;;;;;;;;5044219;28;20048;-73
2022/12/08 05:06:29;;;;;;;8.00;4.40;;;;;;;;;;5046198;28;20153;-73
2022/12/08 05:08:55;;;;;;;7.85;3.58;;;;;;;;;;5041693;28;20071;-74
2022/12/08 05:11:21;;;;;;;6.22;3.55;;;;;;;;;;5042631;28;20045;-74
2022/12/08 05:13:47;;;;;;;6.25;3.75;;;;;;;;;;5041464;28;20116;-74
2022/12/08 05:16:14;;;;;;;7.50;3.03;;;;;;;;;;5042432;28;20041;-74
2022/12/08 05:18:41;;;;;;;6.70;2.90;;;;;;;;;;5024013;28;20095;-75
2022/12/08 05:21:07;;;;;;;7.25;2.65;;;;;;;;;;5046140;28;20049;-74
2022/12/08 05:23:34;;;;;;;4.93;2.28;;;;;;;;;;5043536;28;20052;-72
2022/12/08 05:26:00;;;;;;;7.05;2.33;;;;;;;;;;5044634;28;21045;-72
2022/12/08 05:28:26;;;;;;;4.30;2.10;;;;;;;;;;5043845;28;20491;-74
2022/12/08 05:30:52;;;;;;;4.35;2.20;;;;;;;;;;5043437;28;20041;-75
2022/12/08 05:33:18;;;;;;;5.35;1.85;;;;;;;;;;5038039;28;20790;-72
2022/12/08 05:35:44;;;;;;;5.38;1.77;;;;;;;;;;5043361;28;20283;-74
2022/12/08 05:38:11;;;;;;;4.55;1.70;;;;;;;;;;5043149;28;20060;-73
2022/12/08 05:40:38;;;;;;;4.03;1.38;;;;;;;;;;5041439;28;20044;-74
2022/12/08 05:43:04;;;;;;;4.40;1.60;;;;;;;;;;5043930;28;20048;-73
2022/12/08 05:45:30;;;;;;;4.15;1.70;;;;;;;;;;5046346;28;20048;-72
2022/12/08 05:47:56;;;;;;;3.33;1.73;;;;;;;;;;5041500;28;20076;-73
2022/12/08 05:50:22;;;;;;;5.28;1.50;;;;;;;;;;5043344;28;20049;-72
2022/12/08 05:52:48;;;;;;;2.75;1.63;;;;;;;;;;5040888;28;20044;-74
2022/12/08 05:55:14;;;;;;;2.53;1.40;;;;;;;;;;5040657;28;20033;-73
2022/12/08 05:57:40;;;;;;;3.25;1.50;;;;;;;;;;5039042;28;20060;-73
2022/12/08 06:00:06;;;;;;;6.30;1.90;;;;;;;;;;5046538;28;20048;-75
2022/12/08 06:02:33;;;;;;;5.22;1.63;;;;;;;;;;5042222;28;20131;-74
2022/12/08 06:04:59;;;;;;;3.63;1.73;;;;;;;;;;5044763;28;20044;-73
2022/12/08 06:07:24;;;;;;;3.92;1.85;;;;;;;;;;5030492;28;20053;-73
2022/12/08 06:09:50;;;;;;;3.15;1.50;;;;;;;;;;5031333;28;20069;-74
2022/12/08 06:12:16;;;;;;;3.63;1.60;;;;;;;;;;5047185;28;20047;-73
2022/12/08 06:14:43;;;;;;;2.45;1.77;;;;;;;;;;5046705;28;20474;-74
2022/12/08 06:17:09;;;;;;;4.18;1.88;;;;;;;;;;5046431;28;20041;-73
2022/12/08 06:19:35;;;;;;;7.28;2.05;;;;;;;;;;5046433;28;20049;-74
2022/12/08 06:22:01;;;;;;;3.15;1.80;;;;;;;;;;5042984;28;20084;-73
2022/12/08 06:24:27;;;;;;;4.30;2.10;;;;;;;;;;5047908;28;20480;-72
2022/12/08 06:26:53;;;;;;;4.88;2.30;;;;;;;;;;5047214;28;20044;-73
2022/12/08 06:29:19;;;;;;;4.72;2.13;;;;;;;;;;5045983;28;20046;-74
2022/12/08 06:31:45;;;;;;;5.22;2.50;;;;;;;;;;5045010;28;20134;-73
2022/12/08 06:34:11;;;;;;;5.68;3.10;;;;;;;;;;5046257;28;20306;-74
2022/12/08 06:36:37;;;;;;;6.80;2.83;;;;;;;;;;5045561;28;20052;-74
2022/12/08 06:39:03;;;;;;;8.52;3.70;;;;;;;;;;5049836;28;20040;-74
2022/12/08 06:41:29;;;;;;;5.78;2.75;;;;;;;;;;5046650;28;20064;-74
2022/12/08 06:43:56;;;;;;;3.67;2.50;;;;;;;;;;5043577;28;20058;-73
2022/12/08 06:46:22;;;;;;;3.45;1.92;;;;;;;;;;5039906;28;20090;-73
2022/12/08 06:48:49;;;;;;;3.00;1.80;;;;;;;;;;5044645;28;20053;-73
2022/12/08 06:51:19;;;;;;;5.97;2.00;;;;;;;;;;5030030;28;20143;-73
2022/12/08 06:53:46;;;;;;;4.63;1.52;;;;;;;;;;5044029;28;20106;-74
2022/12/08 06:56:12;;;;;;;4.72;1.70;;;;;;;;;;5044408;28;20044;-73
2022/12/08 06:58:39;;;;;;;5.78;2.10;;;;;;;;;;5044865;28;20076;-74
2022/12/08 07:01:05;;;;;;;3.95;2.40;;;;;;;;;;5041111;28;20470;-73
2022/12/08 07:03:31;;;;;;;4.43;2.47;;;;;;;;;;5038295;28;20072;-73
2022/12/08 07:05:58;;;;;;;3.97;2.10;;;;;;;;;;5042333;28;20130;-74
2022/12/08 07:08:25;;;;;;;6.70;3.00;;;;;;;;;;5037293;28;20049;-73
2022/12/08 07:10:51;;;;;;;6.32;2.67;;;;;;;;;;5041601;28;20045;-74
2022/12/08 07:13:17;;;;;;;8.32;2.53;;;;;;;;;;5041270;28;20047;-74
2022/12/08 07:15:43;;;;;;;9.30;3.80;;;;;;;;;;5038085;28;20048;-72
2022/12/08 07:18:09;;;;;;;4.70;3.40;;;;;;;;;;5041288;28;20156;-74
2022/12/08 07:20:35;;;;;;;7.10;3.28;;;;;;;;;;5041315;28;20083;-74
2022/12/08 07:23:01;;;;;;;4.78;3.60;;;;;;;;;;5043334;28;20049;-74
2022/12/08 07:25:27;;;;;;;5.82;3.70;;;;;;;;;;5043713;28;20045;-73
2022/12/08 07:27:53;;;;;;;8.07;3.85;;;;;;;;;;5041632;28;20048;-72
2022/12/08 07:30:19;;;;;;;6.10;4.40;;;;;;;;;;5042243;28;20060;-74
2022/12/08 07:32:45;;;;;;;7.93;4.50;;;;;;;;;;5039195;28;20073;-73
2022/12/08 07:35:11;;;;;;;11.82;4.97;;;;;;;;;;5045317;28;20526;-73
2022/12/08 07:37:38;;;;;;;12.88;5.50;;;;;;;;;;5051311;28;22512;-75
2022/12/08 07:40:04;;;;;;;9.40;5.20;;;;;;;;;;5041697;28;20037;-75
2022/12/08 07:42:30;;;;;;;8.02;4.50;;;;;;;;;;5046298;28;20063;-73
2022/12/08 07:44:56;;;;;;;8.32;4.75;;;;;;;;;;5026226;28;20049;-74
2022/12/08 07:47:22;;;;;;;7.60;4.03;;;;;;;;;;5039542;28;20045;-75
2022/12/08 07:49:48;;;;;;;10.23;4.28;;;;;;;;;;5039488;28;20483;-73
2022/12/08 07:52:14;;;;;;;6.20;4.07;;;;;;;;;;5039298;28;20048;-75
2022/12/08 07:54:40;;;;;;;8.45;4.15;;;;;;;;;;5039973;28;20038;-75
2022/12/08 07:57:07;;;;;;;5.45;3.22;;;;;;;;;;5037973;28;20130;-75
2022/12/08 07:59:33;;;;;;;8.48;3.45;;;;;;;;;;5037333;28;20041;-74
2022/12/08 08:01:59;;;;;;;6.28;3.30;;;;;;;;;;5037549;28;20045;-75
2022/12/08 08:04:25;;;;;;;6.22;3.03;;;;;;;;;;5024048;28;20518;-75
2022/12/08 08:06:51;;;;;;;5.57;2.85;;;;;;;;;;5036171;28;20037;-75
2022/12/08 08:09:17;;;;;;;7.90;2.70;;;;;;;;;;5040822;28;20053;-74
2022/12/08 08:11:43;;;;;;;6.65;2.67;;;;;;;;;;5043542;28;20171;-73
2022/12/08 08:14:09;;;;;;;5.55;2.33;;;;;;;;;;5036990;28;20123;-73
2022/12/08 08:16:35;;;;;;;7.50;2.13;;;;;;;;;;5026937;28;20045;-72
2022/12/08 08:19:01;;;;;;;5.97;2.05;;;;;;;;;;5038746;28;20474;-75
2022/12/08 08:21:27;;;;;;;4.40;2.20;;;;;;;;;;5026193;28;20063;-76
2022/12/08 08:23:53;;;;;;;3.67;2.10;;;;;;;;;;5043115;28;20091;-73
2022/12/08 08:26:19;;;;;;;6.80;2.03;;;;;;;;;;5041575;28;20123;-75
2022/12/08 08:28:46;;;;;;;2.72;1.50;;;;;;;;;;5038441;28;20103;-73
2022/12/08 08:31:13;;;;;;;4.40;1.63;;;;;;;;;;5039860;28;20068;-73
2022/12/08 08:33:39;;;;;;;4.07;1.70;;;;;;;;;;5039181;28;20049;-74
2022/12/08 08:36:08;;;;;;;4.25;1.60;;;;;;;;;;5039461;28;20410;-75
2022/12/08 08:38:35;;;;;;;5.88;1.63;;;;;;;;;;5039017;28;20033;-73
2022/12/08 08:41:06;;;;;;;5.38;1.70;;;;;;;;;;5041709;28;20060;-75
2022/12/08 08:43:35;;;;;;;5.90;1.70;;;;;;;;;;5038625;28;20106;-75
2022/12/08 08:46:01;;;;;;;6.43;1.60;;;;;;;;;;5025920;28;20045;-75
2022/12/08 08:48:29;;;;;;;5.20;1.70;;;;;;;;;;5040238;28;20055;-74
2022/12/08 08:50:55;;;;;;;4.85;1.45;;;;;;;;;;5038999;28;20067;-73
2022/12/08 08:53:21;;;;;;;7.35;1.60;;;;;;;;;;5039930;28;20178;-75
2022/12/08 08:55:49;;;;;;;6.20;1.40;;;;;;;;;;5040383;28;20044;-73
2022/12/08 08:58:15;;;;;;;4.55;1.30;;;;;;;;;;5025223;28;21813;-73
2022/12/08 09:00:41;;;;;;;6.18;1.42;;;;;;;;;;5036461;28;20041;-74
2022/12/08 09:03:07;;;;;;;3.92;1.30;;;;;;;;;;5041069;28;20041;-75
2022/12/08 09:05:33;;;;;;;4.28;1.30;;;;;;;;;;5040772;28;20510;-74
2022/12/08 09:07:59;;;;;;;4.05;1.60;;;;;;;;;;5025819;28;20052;-74
2022/12/08 09:10:25;;;;;;;6.50;1.45;;;;;;;;;;5041354;28;20059;-73
2022/12/08 09:12:51;;;;;;;7.82;1.42;;;;;;;;;;5042148;28;20041;-74
2022/12/08 09:15:19;;;;;;;3.50;1.20;;;;;;;;;;5042965;28;20036;-73
2022/12/08 09:17:45;;;;;;;5.10;1.30;;;;;;;;;;5044457;28;20407;-72
2022/12/08 09:20:11;;;;;;;2.80;1.10;;;;;;;;;;5046176;28;20171;-77
2022/12/08 09:22:37;;;;;;;3.42;1.42;;;;;;;;;;5041902;28;20049;-73
2022/12/08 09:25:03;;;;;;;3.05;1.13;;;;;;;;;;5046554;28;20056;-72
2022/12/08 09:27:30;;;;;;;4.10;2.55;;;;;;;;;;5046559;28;20098;-72
2022/12/08 09:29:56;;;;;;;5.90;1.60;;;;;;;;;;5045413;28;20095;-73
2022/12/08 09:32:22;;;;;;;4.22;1.60;;;;;;;;;;5037424;28;20041;-73
2022/12/08 09:34:48;;;;;;;3.38;1.60;;;;;;;;;;5045671;28;20119;-73
2022/12/08 09:37:14;;;;;;;3.78;1.73;;;;;;;;;;5048979;28;20128;-75
2022/12/08 09:39:40;;;;;;;2.10;1.55;;;;;;;;;;5042286;28;20032;-75
2022/12/08 09:42:07;;;;;;;4.28;2.20;;;;;;;;;;5034001;28;20119;-73
2022/12/08 09:44:43;;;;;;;4.35;2.08;;;;;;;;;;5027109;28;20087;-75
2022/12/08 09:47:27;;;;;;;3.42;2.13;;;;;;;;;;5044916;28;20055;-72
2022/12/08 09:49:59;;;;;;;6.93;2.45;;;;;;;;;;5048670;28;20094;-75
2022/12/08 09:52:27;;;;;;;4.20;2.50;;;;;;;;;;5046668;28;20492;-73
2022/12/08 09:54:55;;;;;;;6.72;3.15;;;;;;;;;;5044614;28;20041;-77
2022/12/08 09:57:22;;;;;;;3.95;2.58;;;;;;;;;;5049699;28;20048;-74
2022/12/08 09:59:51;;;;;;;5.10;2.90;;;;;;;;;;5029961;28;20051;-74
2022/12/08 10:02:22;;;;;;;7.45;3.10;;;;;;;;;;5050278;28;20071;-72
2022/12/08 10:04:48;;;;;;;6.15;3.13;;;;;;;;;;5052987;28;20744;-73
2022/12/08 10:07:17;;;;;;;9.57;4.72;;;;;;;;;;5052702;28;20068;-74
2022/12/08 10:09:43;;;;;;;6.97;3.90;;;;;;;;;;5046827;28;20441;-73
2022/12/08 10:12:17;;;;;;;7.53;4.10;;;;;;;;;;5058869;28;20053;-73
2022/12/08 10:14:51;;;;;;;7.07;4.45;;;;;;;;;;5031722;28;20067;-75
2022/12/08 10:17:21;;;;;;;6.10;4.15;;;;;;;;;;5050505;28;20056;-73
2022/12/08 10:19:48;;;;;;;7.28;4.90;;;;;;;;;;5044810;28;20037;-73
2022/12/08 10:22:25;;;;;;;6.78;4.80;;;;;;;;;;5050620;28;20045;-74
2022/12/08 10:24:58;;;;;;;6.72;4.35;;;;;;;;;;5046336;28;20557;-73
2022/12/08 10:27:24;;;;;;;10.57;4.80;;;;;;;;;;5047002;28;20052;-75
2022/12/08 10:29:51;;;;;;;6.57;4.53;;;;;;;;;;5050182;28;20513;-74
2022/12/08 10:32:21;;;;;;;9.25;4.65;;;;;;;;;;5029269;28;20462;-74
2022/12/08 10:35:08;;;;;;;10.32;5.03;;;;;;;;;;5043097;28;20037;-74
2022/12/08 10:37:34;;;;;;;7.45;4.25;;;;;;;;;;5049149;28;20041;-75
2022/12/08 10:40:00;;;;;;;6.75;4.13;;;;;;;;;;5042124;28;20045;-75
2022/12/08 10:42:30;;;;;;;5.07;3.88;;;;;;;;;;5042101;28;20107;-75
2022/12/08 10:44:59;;;;;;;6.72;4.28;;;;;;;;;;5026608;28;20044;-75
2022/12/08 10:47:26;;;;;;;5.47;3.70;;;;;;;;;;5049666;28;20064;-74
2022/12/08 10:50:11;;;;;;;10.18;3.88;;;;;;;;;;5045276;28;20065;-73
2022/12/08 10:52:38;;;;;;;8.32;3.80;;;;;;;;;;5046623;28;20060;-73
2022/12/08 10:55:12;;;;;;;5.28;3.50;;;;;;;;;;5042546;28;20447;-76
2022/12/08 10:57:38;;;;;;;7.47;3.65;;;;;;;;;;5029853;28;20048;-75
2022/12/08 11:00:05;;;;;;;9.48;4.00;;;;;;;;;;5045302;28;20049;-74
2022/12/08 11:02:31;;;;;;;8.75;3.58;;;;;;;;;;5042162;28;20052;-74
2022/12/08 11:04:59;;;;;;;5.18;3.05;;;;;;;;;;5039892;28;20068;-75
2022/12/08 11:07:25;;;;;;;7.53;3.28;;;;;;;;;;5047018;28;20067;-76
2022/12/08 11:09:53;;;;;;;6.72;3.28;;;;;;;;;;5048573;28;20049;-74
2022/12/08 11:12:21;;;;;;;3.83;2.55;;;;;;;;;;5043797;28;20088;-73
2022/12/08 11:14:49;;;;;;;7.43;2.55;;;;;;;;;;5050828;28;20044;-74
2022/12/08 11:17:38;;;;;;;8.00;2.72;;;;;;;;;;5045283;28;20051;-74
2022/12/08 11:20:10;;;;;;;6.40;2.60;;;;;;;;;;5042213;28;20053;-75
2022/12/08 11:22:43;;;;;;;6.30;2.47;;;;;;;;;;5045264;28;20124;-76
2022/12/08 11:25:10;;;;;;;5.70;2.40;;;;;;;;;;5029210;28;20075;-76
2022/12/08 11:27:37;;;;;;;6.90;2.63;;;;;;;;;;5044651;28;20097;-76
2022/12/08 11:30:06;;;;;;;7.43;2.65;;;;;;;;;;5043633;28;20174;-76
2022/12/08 11:32:33;;;;;;;3.42;2.55;;;;;;;;;;5043614;28;20550;-75
2022/12/08 11:35:03;;;;;;;4.97;2.70;;;;;;;;;;5040124;28;20122;-75
2022/12/08 11:37:32;;;;;;;3.50;2.25;;;;;;;;;;5043396;28;20061;-74
2022/12/08 11:40:00;;;;;;;5.65;3.00;;;;;;;;;;5048197;28;20045;-75
2022/12/08 11:42:31;;;;;;;4.07;2.42;;;;;;;;;;5043391;28;20060;-74
2022/12/08 11:44:58;;;;;;;5.43;2.88;;;;;;;;;;5041087;28;20106;-75
2022/12/08 11:47:25;;;;;;;9.57;3.00;;;;;;;;;;5025168;28;20057;-76
2022/12/08 11:50:24;;;;;;;6.18;3.08;;;;;;;;;;5043392;28;20178;-75
2022/12/08 11:52:51;;;;;;;6.53;2.78;;;;;;;;;;5004305;28;20127;-76
2022/12/08 11:55:20;;;;;;;3.45;2.42;;;;;;;;;;5046616;28;20033;-75
2022/12/08 11:57:46;;;;;;;6.20;2.63;;;;;;;;;;5045937;28;20578;-75
2022/12/08 12:00:14;;;;;;;5.18;2.88;;;;;;;;;;5044484;28;20077;-76
2022/12/08 12:02:44;;;;;;;6.18;2.80;;;;;;;;;;5035980;28;20048;-76
2022/12/08 12:05:22;;;;;;;5.75;3.10;;;;;;;;;;5042915;28;20044;-75
2022/12/08 12:08:00;;;;;;;8.98;3.42;;;;;;;;;;5050059;28;20074;-76
2022/12/08 12:10:26;;;;;;;6.20;3.00;;;;;;;;;;5043245;28;20140;-76
2022/12/08 12:13:11;;;;;;;5.78;3.08;;;;;;;;;;5043015;28;20124;-75
2022/12/08 12:15:56;;;;;;;7.20;3.50;;;;;;;;;;5033986;28;20135;-75
2022/12/08 12:18:31;;;;;;;10.20;3.40;;;;;;;;;;5040218;28;20112;-76
2022/12/08 12:21:06;;;;;;;5.82;3.40;;;;;;;;;;5045859;28;20045;-75
2022/12/08 12:23:44;;;;;;;7.47;3.38;;;;;;;;;;5043648;28;20041;-75
2022/12/08 12:26:17;;;;;;;4.15;2.90;;;;;;;;;;5046551;28;20046;-75
2022/12/08 12:28:45;;;;;;;7.18;3.33;;;;;;;;;;5026234;28;20037;-75
2022/12/08 12:31:22;;;;;;;5.90;2.80;;;;;;;;;;5025773;28;20045;-77
2022/12/08 12:33:49;;;;;;;6.85;2.90;;;;;;;;;;5047432;28;20071;-75
2022/12/08 12:36:15;;;;;;;5.57;2.60;;;;;;;;;;5050681;28;20040;-76
2022/12/08 12:39:06;;;;;;;5.75;2.70;;;;;;;;;;5052830;28;20170;-76
2022/12/08 12:41:42;;;;;;;5.15;2.60;;;;;;;;;;5047687;28;20041;-75
2022/12/08 12:44:22;;;;;;;5.53;2.65;;;;;;;;;;5045386;28;20451;-79
2022/12/08 12:46:48;;;;;;;5.93;2.70;;;;;;;;;;5048747;28;20111;-75
2022/12/08 12:49:33;;;;;;;4.50;2.67;;;;;;;;;;5045068;28;20037;-75
2022/12/08 12:51:59;;;;;;;7.72;2.65;;;;;;;;;;5049152;28;20499;-76
2022/12/08 12:54:26;;;;;;;7.50;2.83;;;;;;;;;;5050586;28;20041;-75
2022/12/08 12:57:15;;;;;;;8.27;2.67;;;;;;;;;;5047579;28;20045;-75
2022/12/08 12:59:44;;;;;;;5.82;3.00;;;;;;;;;;5037200;28;20037;-74
2022/12/08 13:02:24;;;;;;;6.47;2.80;;;;;;;;;;5040347;28;20071;-77
2022/12/08 13:04:57;;;;;;;4.68;2.95;;;;;;;;;;5046933;28;20072;-76
2022/12/08 13:07:25;;;;;;;5.60;2.95;;;;;;;;;;5042539;28;20495;-77
2022/12/08 13:09:57;;;;;;;7.28;2.83;;;;;;;;;;5029255;28;20041;-76
2022/12/08 13:12:24;;;;;;;4.68;2.40;;;;;;;;;;5045872;28;20048;-77
2022/12/08 13:14:50;;;;;;;7.00;2.70;;;;;;;;;;5035871;28;20083;-77
2022/12/08 13:17:22;;;;;;;7.28;3.03;;;;;;;;;;5039853;28;20077;-76
2022/12/08 13:19:49;;;;;;;6.30;2.90;;;;;;;;;;5041463;28;20095;-75
2022/12/08 13:22:45;;;;;;;5.63;2.60;;;;;;;;;;5047475;28;20204;-76
2022/12/08 13:25:29;;;;;;;7.72;3.30;;;;;;;;;;5022686;28;20041;-76
2022/12/08 13:27:55;;;;;;;5.22;2.70;;;;;;;;;;5023976;28;20041;-76
2022/12/08 13:30:40;;;;;;;3.97;2.15;;;;;;;;;;5045721;28;20080;-77
2022/12/08 13:33:10;;;;;;;3.95;2.30;;;;;;;;;;5048149;28;20136;-74
2022/12/08 13:35:39;;;;;;;7.35;2.08;;;;;;;;;;5047873;28;20072;-73
2022/12/08 13:38:05;;;;;;;4.32;2.17;;;;;;;;;;5049775;28;20048;-74
2022/12/08 13:40:33;;;;;;;4.53;2.10;;;;;;;;;;5032480;28;20425;-73
2022/12/08 13:43:05;;;;;;;6.20;2.33;;;;;;;;;;5026030;28;20042;-75
2022/12/08 13:45:31;;;;;;;;;;;;;;;;;;5039278;28;20053;-73
2022/12/08 13:48:09;;;;;;;6.90;2.30;;;;;;;;;;5046484;28;19924;-74
2022/12/08 13:50:39;;;;;;;4.88;2.25;;;;;;;;;;5049746;28;20179;-74
2022/12/08 13:53:14;;;;;;;3.97;2.28;;;;;;;;;;5043287;28;20052;-74
2022/12/08 13:55:40;;;;;;;7.25;2.58;;;;;;;;;;5040263;28;20128;-74
2022/12/08 13:58:15;;;;;;;4.97;2.15;;;;;;;;;;5049480;28;20072;-73
2022/12/08 14:00:41;;;;;;;5.15;2.30;;;;;;;;;;5047512;28;20095;-76
2022/12/08 14:03:12;;;;;;;3.63;2.33;;;;;;;;;;5047642;28;20056;-76
2022/12/08 14:05:40;;;;;;;2.17;1.88;;;;;;;;;;5046328;28;20076;-74
2022/12/08 14:08:26;;;;;;;5.45;2.03;;;;;;;;;;5042906;28;20087;-74
2022/12/08 14:10:53;;;;;;;5.82;2.55;;;;;;;;;;5032586;28;20053;-76
2022/12/08 14:13:19;;;;;;;10.13;2.83;;;;;;;;;;5043789;28;20041;-76
2022/12/08 14:15:45;;;;;;;6.05;2.88;;;;;;;;;;5048841;28;20064;-76
2022/12/08 14:18:24;;;;;;;7.43;3.35;;;;;;;;;;5044646;28;20041;-76
2022/12/08 14:21:00;;;;;;;6.85;2.88;;;;;;;;;;5034948;28;20076;-76
2022/12/08 14:23:26;;;;;;;5.03;2.65;;;;;;;;;;5047467;28;20048;-75
2022/12/08 14:25:53;;;;;;;8.70;2.75;;;;;;;;;;5032165;28;20073;-75
2022/12/08 14:28:20;;;;;;;5.78;2.55;;;;;;;;;;5045226;28;20475;-76
2022/12/08 14:30:47;;;;;;;5.53;2.65;;;;;;;;;;5043633;28;20047;-75
2022/12/08 14:33:15;;;;;;;5.93;2.67;;;;;;;;;;5049180;28;20064;-75
2022/12/08 14:35:41;;;;;;;5.63;2.50;;;;;;;;;;5042248;28;20069;-76
2022/12/08 14:38:15;;;;;;;8.43;2.70;;;;;;;;;;5044605;28;20041;-76
2022/12/08 14:40:42;;;;;;;5.28;2.70;;;;;;;;;;5045068;28;20391;-76
2022/12/08 14:43:08;;;;;;;4.60;2.55;;;;;;;;;;5046484;28;20049;-76
2022/12/08 14:45:45;;;;;;;5.88;2.60;;;;;;;;;;5028558;28;20112;-75
2022/12/08 14:48:20;;;;;;;5.50;2.40;;;;;;;;;;5042339;28;20040;-74
2022/12/08 14:51:05;;;;;;;5.18;2.65;;;;;;;;;;5048248;28;20037;-76
2022/12/08 14:53:37;;;;;;;8.95;2.50;;;;;;;;;;5042010;28;20431;-76
2022/12/08 14:56:21;;;;;;;6.57;2.67;;;;;;;;;;5040618;28;20044;-76